sensor_id;sensor_type;location;lat;lon;timestamp;pressure;altitude;pressure_sealevel;temperature
73894;BMP280;62699;50.534;12.784;2023-03-14T00:00:23;94303.97;;;8.78
73894;BMP280;62699;50.534;12.784;2023-03-14T00:05:24;94306.06;;;8.72
73894;BMP280;62699;50.534;12.784;2023-03-14T00:10:25;94324.47;;;8.68
73894;BMP280;62699;50.534;12.784;2023-03-14T00:15:26;94337.09;;;8.89
73894;BMP280;62699;50.534;12.784;2023-03-14T00:20:26;94340.06;;;8.77
73894;BMP280;62699;50.534;12.784;2023-03-14T00:25:26;94345.00;;;8.66
73894;BMP280;62699;50.534;12.784;2023-03-14T00:30:27;94350.44;;;8.81
73894;BMP280;62699;50.534;12.784;2023-03-14T00:35:27;94359.53;;;8.99
73894;BMP280;62699;50.534;12.784;2023-03-14T00:40:28;94360.00;;;9.18
73894;BMP280;62699;50.534;12.784;2023-03-14T00:45:29;94352.59;;;9.11
73894;BMP280;62699;50.534;12.784;2023-03-14T00:50:31;94325.09;;;9.18
73894;BMP280;62699;50.534;12.784;2023-03-14T00:55:31;94341.00;;;9.16
73894;BMP280;62699;50.534;12.784;2023-03-14T01:00:32;94356.47;;;9.31
73894;BMP280;62699;50.534;12.784;2023-03-14T01:05:32;94341.78;;;9.24
73894;BMP280;62699;50.534;12.784;2023-03-14T01:10:34;94359.53;;;9.35
73894;BMP280;62699;50.534;12.784;2023-03-14T01:15:36;94359.75;;;9.44
73894;BMP280;62699;50.534;12.784;2023-03-14T01:20:37;94351.16;;;9.46
73894;BMP280;62699;50.534;12.784;2023-03-14T01:25:40;94351.72;;;9.44
73894;BMP280;62699;50.534;12.784;2023-03-14T01:30:41;94358.22;;;9.28
73894;BMP280;62699;50.534;12.784;2023-03-14T01:35:41;94358.94;;;9.29
73894;BMP280;62699;50.534;12.784;2023-03-14T01:40:43;94352.00;;;9.33
73894;BMP280;62699;50.534;12.784;2023-03-14T01:51:14;94351.09;;;9.31
73894;BMP280;62699;50.534;12.784;2023-03-14T01:56:17;94351.38;;;9.19
73894;BMP280;62699;50.534;12.784;2023-03-14T02:01:20;94360.34;;;9.22
73894;BMP280;62699;50.534;12.784;2023-03-14T02:06:25;94348.91;;;9.21
73894;BMP280;62699;50.534;12.784;2023-03-14T02:11:28;94350.84;;;9.13
73894;BMP280;62699;50.534;12.784;2023-03-14T02:16:30;94340.59;;;9.04
73894;BMP280;62699;50.534;12.784;2023-03-14T02:21:37;94334.81;;;9.00
73894;BMP280;62699;50.534;12.784;2023-03-14T02:32:04;94309.47;;;8.73
73894;BMP280;62699;50.534;12.784;2023-03-14T02:37:05;94303.22;;;8.78
73894;BMP280;62699;50.534;12.784;2023-03-14T02:42:05;94297.88;;;8.78
73894;BMP280;62699;50.534;12.784;2023-03-14T02:47:06;94276.41;;;8.78
73894;BMP280;62699;50.534;12.784;2023-03-14T02:52:06;94285.22;;;8.58
73894;BMP280;62699;50.534;12.784;2023-03-14T02:57:07;94289.13;;;8.49
73894;BMP280;62699;50.534;12.784;2023-03-14T03:02:07;94296.69;;;8.58
73894;BMP280;62699;50.534;12.784;2023-03-14T03:07:07;94303.69;;;8.41
73894;BMP280;62699;50.534;12.784;2023-03-14T03:12:08;94309.91;;;8.35
73894;BMP280;62699;50.534;12.784;2023-03-14T03:17:08;94297.88;;;8.50
73894;BMP280;62699;50.534;12.784;2023-03-14T03:22:08;94304.72;;;8.58
73894;BMP280;62699;50.534;12.784;2023-03-14T03:27:08;94305.78;;;8.84
73894;BMP280;62699;50.534;12.784;2023-03-14T03:32:08;94290.41;;;8.84
73894;BMP280;62699;50.534;12.784;2023-03-14T03:37:09;94278.94;;;8.84
73894;BMP280;62699;50.534;12.784;2023-03-14T03:42:09;94280.72;;;8.81
73894;BMP280;62699;50.534;12.784;2023-03-14T03:47:10;94274.88;;;8.62
73894;BMP280;62699;50.534;12.784;2023-03-14T03:52:10;94278.22;;;8.83
73894;BMP280;62699;50.534;12.784;2023-03-14T03:57:13;94282.88;;;8.83
73894;BMP280;62699;50.534;12.784;2023-03-14T04:02:14;94269.28;;;8.52
73894;BMP280;62699;50.534;12.784;2023-03-14T04:07:16;94273.53;;;8.48
73894;BMP280;62699;50.534;12.784;2023-03-14T04:12:16;94271.13;;;8.36
73894;BMP280;62699;50.534;12.784;2023-03-14T04:17:17;94274.69;;;8.31
73894;BMP280;62699;50.534;12.784;2023-03-14T04:22:17;94276.94;;;8.48
73894;BMP280;62699;50.534;12.784;2023-03-14T04:27:19;94288.56;;;8.51
73894;BMP280;62699;50.534;12.784;2023-03-14T04:32:19;94272.09;;;8.75
73894;BMP280;62699;50.534;12.784;2023-03-14T04:37:21;94256.41;;;8.79
73894;BMP280;62699;50.534;12.784;2023-03-14T04:42:21;94254.75;;;8.76
73894;BMP280;62699;50.534;12.784;2023-03-14T04:47:21;94244.22;;;8.78
73894;BMP280;62699;50.534;12.784;2023-03-14T04:52:22;94243.13;;;8.73
73894;BMP280;62699;50.534;12.784;2023-03-14T04:57:25;94224.94;;;8.79
73894;BMP280;62699;50.534;12.784;2023-03-14T05:02:25;94222.28;;;8.95
73894;BMP280;62699;50.534;12.784;2023-03-14T05:07:27;94216.41;;;8.96
73894;BMP280;62699;50.534;12.784;2023-03-14T05:12:27;94186.31;;;8.90
73894;BMP280;62699;50.534;12.784;2023-03-14T05:17:31;94176.66;;;8.87
73894;BMP280;62699;50.534;12.784;2023-03-14T05:22:32;94176.81;;;8.74
73894;BMP280;62699;50.534;12.784;2023-03-14T05:27:32;94180.34;;;8.69
73894;BMP280;62699;50.534;12.784;2023-03-14T05:32:33;94181.41;;;8.66
73894;BMP280;62699;50.534;12.784;2023-03-14T05:37:33;94178.56;;;8.71
73894;BMP280;62699;50.534;12.784;2023-03-14T05:42:35;94182.47;;;8.63
73894;BMP280;62699;50.534;12.784;2023-03-14T05:47:35;94179.34;;;8.87
73894;BMP280;62699;50.534;12.784;2023-03-14T05:52:35;94181.66;;;8.83
73894;BMP280;62699;50.534;12.784;2023-03-14T05:57:36;94188.09;;;8.80
73894;BMP280;62699;50.534;12.784;2023-03-14T06:02:36;94180.75;;;8.80
73894;BMP280;62699;50.534;12.784;2023-03-14T06:07:36;94173.47;;;8.89
73894;BMP280;62699;50.534;12.784;2023-03-14T06:12:36;94189.59;;;9.04
73894;BMP280;62699;50.534;12.784;2023-03-14T06:17:37;94186.22;;;9.18
73894;BMP280;62699;50.534;12.784;2023-03-14T06:22:38;94174.25;;;9.19
73894;BMP280;62699;50.534;12.784;2023-03-14T06:27:39;94189.28;;;9.30
73894;BMP280;62699;50.534;12.784;2023-03-14T06:32:39;94191.66;;;9.34
73894;BMP280;62699;50.534;12.784;2023-03-14T06:37:40;94190.56;;;9.37
73894;BMP280;62699;50.534;12.784;2023-03-14T06:42:41;94205.94;;;9.29
73894;BMP280;62699;50.534;12.784;2023-03-14T06:47:42;94202.00;;;9.30
73894;BMP280;62699;50.534;12.784;2023-03-14T06:52:42;94216.34;;;9.25
73894;BMP280;62699;50.534;12.784;2023-03-14T06:57:49;94210.06;;;9.30
73894;BMP280;62699;50.534;12.784;2023-03-14T07:02:49;94226.16;;;9.22
73894;BMP280;62699;50.534;12.784;2023-03-14T07:07:49;94234.72;;;9.20
73894;BMP280;62699;50.534;12.784;2023-03-14T07:12:50;94238.66;;;9.19
73894;BMP280;62699;50.534;12.784;2023-03-14T07:17:51;94231.13;;;9.10
73894;BMP280;62699;50.534;12.784;2023-03-14T07:22:51;94247.63;;;9.14
73894;BMP280;62699;50.534;12.784;2023-03-14T07:27:51;94231.16;;;9.26
73894;BMP280;62699;50.534;12.784;2023-03-14T07:32:51;94243.75;;;9.46
73894;BMP280;62699;50.534;12.784;2023-03-14T07:37:53;94228.38;;;9.61
73894;BMP280;62699;50.534;12.784;2023-03-14T07:42:54;94233.41;;;9.80
73894;BMP280;62699;50.534;12.784;2023-03-14T07:47:55;94235.56;;;9.89
73894;BMP280;62699;50.534;12.784;2023-03-14T07:52:58;94236.63;;;9.86
73894;BMP280;62699;50.534;12.784;2023-03-14T07:57:58;94235.03;;;9.83
73894;BMP280;62699;50.534;12.784;2023-03-14T08:02:59;94221.78;;;10.16
73894;BMP280;62699;50.534;12.784;2023-03-14T08:07:59;94217.78;;;10.17
73894;BMP280;62699;50.534;12.784;2023-03-14T08:13:00;94202.38;;;10.25
73894;BMP280;62699;50.534;12.784;2023-03-14T08:18:00;94200.38;;;10.33
73894;BMP280;62699;50.534;12.784;2023-03-14T08:23:01;94202.16;;;10.45
73894;BMP280;62699;50.534;12.784;2023-03-14T08:28:01;94193.16;;;10.50
73894;BMP280;62699;50.534;12.784;2023-03-14T08:33:01;94189.59;;;10.55
73894;BMP280;62699;50.534;12.784;2023-03-14T08:38:02;94190.28;;;10.64
73894;BMP280;62699;50.534;12.784;2023-03-14T08:43:02;94198.84;;;11.10
73894;BMP280;62699;50.534;12.784;2023-03-14T08:48:03;94197.34;;;11.24
73894;BMP280;62699;50.534;12.784;2023-03-14T08:53:04;94196.38;;;11.36
73894;BMP280;62699;50.534;12.784;2023-03-14T08:58:04;94207.25;;;11.14
73894;BMP280;62699;50.534;12.784;2023-03-14T09:03:04;94207.19;;;10.96
73894;BMP280;62699;50.534;12.784;2023-03-14T09:08:05;94208.50;;;10.80
73894;BMP280;62699;50.534;12.784;2023-03-14T09:13:05;94197.03;;;10.80
73894;BMP280;62699;50.534;12.784;2023-03-14T09:18:06;94224.50;;;10.71
73894;BMP280;62699;50.534;12.784;2023-03-14T09:23:09;94221.84;;;10.63
73894;BMP280;62699;50.534;12.784;2023-03-14T09:28:09;94218.94;;;10.69
73894;BMP280;62699;50.534;12.784;2023-03-14T09:33:09;94231.34;;;10.64
73894;BMP280;62699;50.534;12.784;2023-03-14T09:38:10;94216.78;;;10.75
73894;BMP280;62699;50.534;12.784;2023-03-14T09:43:14;94222.72;;;10.73
73894;BMP280;62699;50.534;12.784;2023-03-14T09:48:20;94226.09;;;10.81
73894;BMP280;62699;50.534;12.784;2023-03-14T09:53:26;94225.34;;;10.88
73894;BMP280;62699;50.534;12.784;2023-03-14T09:58:27;94241.63;;;10.90
73894;BMP280;62699;50.534;12.784;2023-03-14T10:03:31;94231.47;;;10.81
73894;BMP280;62699;50.534;12.784;2023-03-14T10:08:32;94231.44;;;10.96
73894;BMP280;62699;50.534;12.784;2023-03-14T10:13:32;94241.31;;;11.26
73894;BMP280;62699;50.534;12.784;2023-03-14T10:18:33;94238.84;;;11.13
73894;BMP280;62699;50.534;12.784;2023-03-14T10:23:37;94234.94;;;11.07
73894;BMP280;62699;50.534;12.784;2023-03-14T10:28:49;94235.16;;;11.01
73894;BMP280;62699;50.534;12.784;2023-03-14T10:34:02;94230.75;;;11.21
73894;BMP280;62699;50.534;12.784;2023-03-14T10:39:22;94237.41;;;11.20
73894;BMP280;62699;50.534;12.784;2023-03-14T10:44:25;94237.63;;;11.39
73894;BMP280;62699;50.534;12.784;2023-03-14T10:49:45;94239.19;;;11.25
73894;BMP280;62699;50.534;12.784;2023-03-14T10:54:59;94242.03;;;11.27
73894;BMP280;62699;50.534;12.784;2023-03-14T11:00:00;94256.47;;;11.07
73894;BMP280;62699;50.534;12.784;2023-03-14T11:10:32;94249.22;;;11.24
73894;BMP280;62699;50.534;12.784;2023-03-14T11:15:34;94253.91;;;11.24
73894;BMP280;62699;50.534;12.784;2023-03-14T11:31:26;94261.44;;;11.58
73894;BMP280;62699;50.534;12.784;2023-03-14T11:41:46;94249.59;;;11.21
73894;BMP280;62699;50.534;12.784;2023-03-14T11:46:54;94257.06;;;11.37
73894;BMP280;62699;50.534;12.784;2023-03-14T11:52:08;94261.25;;;11.56
73894;BMP280;62699;50.534;12.784;2023-03-14T11:57:17;94260.19;;;11.26
73894;BMP280;62699;50.534;12.784;2023-03-14T12:02:24;94256.22;;;10.80
73894;BMP280;62699;50.534;12.784;2023-03-14T12:07:34;94250.56;;;11.00
73894;BMP280;62699;50.534;12.784;2023-03-14T12:12:39;94241.28;;;11.34
73894;BMP280;62699;50.534;12.784;2023-03-14T12:17:41;94234.97;;;11.88
73894;BMP280;62699;50.534;12.784;2023-03-14T12:22:46;94223.53;;;11.56
73894;BMP280;62699;50.534;12.784;2023-03-14T12:38:27;94223.59;;;12.66
73894;BMP280;62699;50.534;12.784;2023-03-14T12:43:31;94209.25;;;12.47
73894;BMP280;62699;50.534;12.784;2023-03-14T12:48:31;94207.44;;;12.15
73894;BMP280;62699;50.534;12.784;2023-03-14T12:54:02;94211.84;;;12.20
73894;BMP280;62699;50.534;12.784;2023-03-14T13:04:09;94203.53;;;12.08
73894;BMP280;62699;50.534;12.784;2023-03-14T13:14:28;94186.56;;;12.32
73894;BMP280;62699;50.534;12.784;2023-03-14T13:19:30;94180.78;;;12.36
73894;BMP280;62699;50.534;12.784;2023-03-14T13:24:35;94188.56;;;12.49
73894;BMP280;62699;50.534;12.784;2023-03-14T13:29:35;94187.19;;;12.40
73894;BMP280;62699;50.534;12.784;2023-03-14T13:34:37;94177.59;;;12.30
73894;BMP280;62699;50.534;12.784;2023-03-14T13:39:39;94177.34;;;12.53
73894;BMP280;62699;50.534;12.784;2023-03-14T13:44:39;94173.88;;;12.43
73894;BMP280;62699;50.534;12.784;2023-03-14T13:49:40;94165.38;;;12.12
73894;BMP280;62699;50.534;12.784;2023-03-14T13:54:40;94156.91;;;12.15
73894;BMP280;62699;50.534;12.784;2023-03-14T13:59:40;94155.22;;;12.03
73894;BMP280;62699;50.534;12.784;2023-03-14T14:04:41;94159.13;;;12.09
73894;BMP280;62699;50.534;12.784;2023-03-14T14:09:43;94165.72;;;11.74
73894;BMP280;62699;50.534;12.784;2023-03-14T14:14:51;94144.81;;;11.65
73894;BMP280;62699;50.534;12.784;2023-03-14T14:19:55;94144.53;;;11.53
73894;BMP280;62699;50.534;12.784;2023-03-14T14:24:56;94149.72;;;11.51
73894;BMP280;62699;50.534;12.784;2023-03-14T14:30:00;94148.41;;;11.60
73894;BMP280;62699;50.534;12.784;2023-03-14T14:35:04;94141.50;;;11.49
73894;BMP280;62699;50.534;12.784;2023-03-14T14:40:20;94149.91;;;11.53
73894;BMP280;62699;50.534;12.784;2023-03-14T14:45:27;94162.91;;;11.47
73894;BMP280;62699;50.534;12.784;2023-03-14T14:50:30;94170.75;;;11.53
73894;BMP280;62699;50.534;12.784;2023-03-14T14:55:33;94183.81;;;11.31
73894;BMP280;62699;50.534;12.784;2023-03-14T15:00:34;94180.22;;;11.04
73894;BMP280;62699;50.534;12.784;2023-03-14T15:05:34;94189.16;;;10.74
73894;BMP280;62699;50.534;12.784;2023-03-14T15:10:36;94203.03;;;10.48
73894;BMP280;62699;50.534;12.784;2023-03-14T15:15:36;94206.19;;;10.14
73894;BMP280;62699;50.534;12.784;2023-03-14T15:20:36;94222.47;;;10.01
73894;BMP280;62699;50.534;12.784;2023-03-14T15:25:36;94231.78;;;9.77
73894;BMP280;62699;50.534;12.784;2023-03-14T15:30:38;94222.28;;;9.61
73894;BMP280;62699;50.534;12.784;2023-03-14T15:35:39;94228.31;;;9.46
73894;BMP280;62699;50.534;12.784;2023-03-14T15:40:41;94242.13;;;9.43
73894;BMP280;62699;50.534;12.784;2023-03-14T15:45:41;94242.13;;;9.35
73894;BMP280;62699;50.534;12.784;2023-03-14T15:50:42;94242.44;;;9.24
73894;BMP280;62699;50.534;12.784;2023-03-14T15:55:43;94246.84;;;9.06
73894;BMP280;62699;50.534;12.784;2023-03-14T16:00:43;94245.03;;;9.01
73894;BMP280;62699;50.534;12.784;2023-03-14T16:05:43;94254.81;;;8.91
73894;BMP280;62699;50.534;12.784;2023-03-14T16:10:45;94259.75;;;8.72
73894;BMP280;62699;50.534;12.784;2023-03-14T16:15:59;94261.47;;;8.62
73894;BMP280;62699;50.534;12.784;2023-03-14T16:21:03;94280.91;;;8.55
73894;BMP280;62699;50.534;12.784;2023-03-14T16:26:10;94475.03;;;8.52
73894;BMP280;62699;50.534;12.784;2023-03-14T16:31:13;94498.03;;;6.20
73894;BMP280;62699;50.534;12.784;2023-03-14T16:36:14;94530.88;;;5.42
73894;BMP280;62699;50.534;12.784;2023-03-14T16:41:17;94545.31;;;5.28
73894;BMP280;62699;50.534;12.784;2023-03-14T16:46:18;94567.38;;;5.28
73894;BMP280;62699;50.534;12.784;2023-03-14T16:51:19;94602.25;;;5.36
73894;BMP280;62699;50.534;12.784;2023-03-14T16:56:22;94625.06;;;5.37
73894;BMP280;62699;50.534;12.784;2023-03-14T17:01:24;94637.59;;;5.42
73894;BMP280;62699;50.534;12.784;2023-03-14T17:06:26;94666.94;;;5.48
73894;BMP280;62699;50.534;12.784;2023-03-14T17:11:27;94684.19;;;5.41
73894;BMP280;62699;50.534;12.784;2023-03-14T17:16:27;94693.69;;;5.36
73894;BMP280;62699;50.534;12.784;2023-03-14T17:21:28;94710.47;;;5.26
73894;BMP280;62699;50.534;12.784;2023-03-14T17:26:29;94748.59;;;5.10
73894;BMP280;62699;50.534;12.784;2023-03-14T17:31:29;94795.69;;;4.90
73894;BMP280;62699;50.534;12.784;2023-03-14T17:36:31;94819.72;;;4.40
73894;BMP280;62699;50.534;12.784;2023-03-14T17:41:31;94858.34;;;3.80
73894;BMP280;62699;50.534;12.784;2023-03-14T17:46:32;94865.97;;;3.08
73894;BMP280;62699;50.534;12.784;2023-03-14T17:51:32;94888.34;;;2.90
73894;BMP280;62699;50.534;12.784;2023-03-14T17:56:32;94918.66;;;2.78
73894;BMP280;62699;50.534;12.784;2023-03-14T18:01:32;94952.22;;;2.75
73894;BMP280;62699;50.534;12.784;2023-03-14T18:06:33;94969.75;;;2.67
73894;BMP280;62699;50.534;12.784;2023-03-14T18:11:33;94989.94;;;2.53
73894;BMP280;62699;50.534;12.784;2023-03-14T18:16:34;94998.00;;;2.64
73894;BMP280;62699;50.534;12.784;2023-03-14T18:21:36;94996.31;;;2.61
73894;BMP280;62699;50.534;12.784;2023-03-14T18:26:40;95013.81;;;2.74
73894;BMP280;62699;50.534;12.784;2023-03-14T18:31:42;95023.09;;;2.84
73894;BMP280;62699;50.534;12.784;2023-03-14T18:36:43;95015.38;;;2.86
73894;BMP280;62699;50.534;12.784;2023-03-14T18:41:43;95036.63;;;2.86
73894;BMP280;62699;50.534;12.784;2023-03-14T18:46:44;95058.94;;;2.94
73894;BMP280;62699;50.534;12.784;2023-03-14T18:51:44;95064.16;;;2.83
73894;BMP280;62699;50.534;12.784;2023-03-14T18:56:44;95062.69;;;2.82
73894;BMP280;62699;50.534;12.784;2023-03-14T19:01:46;95075.28;;;2.87
73894;BMP280;62699;50.534;12.784;2023-03-14T19:06:47;95083.41;;;2.78
73894;BMP280;62699;50.534;12.784;2023-03-14T19:11:48;95100.94;;;2.90
73894;BMP280;62699;50.534;12.784;2023-03-14T19:16:49;95097.81;;;2.91
73894;BMP280;62699;50.534;12.784;2023-03-14T19:21:51;95113.66;;;3.06
73894;BMP280;62699;50.534;12.784;2023-03-14T19:26:54;95130.63;;;3.09
73894;BMP280;62699;50.534;12.784;2023-03-14T19:31:55;95146.16;;;2.95
73894;BMP280;62699;50.534;12.784;2023-03-14T19:36:55;95145.13;;;2.87
73894;BMP280;62699;50.534;12.784;2023-03-14T19:41:55;95170.31;;;2.92
73894;BMP280;62699;50.534;12.784;2023-03-14T19:46:58;95176.13;;;2.96
73894;BMP280;62699;50.534;12.784;2023-03-14T19:51:59;95183.91;;;2.99
73894;BMP280;62699;50.534;12.784;2023-03-14T19:57:00;95201.13;;;3.04
73894;BMP280;62699;50.534;12.784;2023-03-14T20:02:03;95212.69;;;3.01
73894;BMP280;62699;50.534;12.784;2023-03-14T20:07:04;95210.19;;;2.92
73894;BMP280;62699;50.534;12.784;2023-03-14T20:12:05;95226.03;;;3.07
73894;BMP280;62699;50.534;12.784;2023-03-14T20:17:05;95220.38;;;2.99
73894;BMP280;62699;50.534;12.784;2023-03-14T20:22:07;95246.06;;;3.02
73894;BMP280;62699;50.534;12.784;2023-03-14T20:27:07;95281.66;;;2.90
73894;BMP280;62699;50.534;12.784;2023-03-14T20:32:08;95285.22;;;2.37
73894;BMP280;62699;50.534;12.784;2023-03-14T20:37:09;95323.47;;;2.16
73894;BMP280;62699;50.534;12.784;2023-03-14T20:42:09;95325.72;;;1.94
73894;BMP280;62699;50.534;12.784;2023-03-14T20:47:10;95327.91;;;1.80
73894;BMP280;62699;50.534;12.784;2023-03-14T20:52:11;95323.53;;;1.92
73894;BMP280;62699;50.534;12.784;2023-03-14T20:57:11;95334.03;;;1.86
73894;BMP280;62699;50.534;12.784;2023-03-14T21:02:14;95331.03;;;1.94
73894;BMP280;62699;50.534;12.784;2023-03-14T21:07:15;95340.81;;;1.87
73894;BMP280;62699;50.534;12.784;2023-03-14T21:12:15;95345.66;;;1.89
73894;BMP280;62699;50.534;12.784;2023-03-14T21:17:17;95352.34;;;1.84
73894;BMP280;62699;50.534;12.784;2023-03-14T21:22:19;95362.03;;;1.87
73894;BMP280;62699;50.534;12.784;2023-03-14T21:27:20;95367.91;;;1.92
73894;BMP280;62699;50.534;12.784;2023-03-14T21:32:20;95375.97;;;1.82
73894;BMP280;62699;50.534;12.784;2023-03-14T21:37:20;95384.97;;;2.00
73894;BMP280;62699;50.534;12.784;2023-03-14T21:42:22;95385.97;;;2.02
73894;BMP280;62699;50.534;12.784;2023-03-14T21:47:22;95395.84;;;2.02
73894;BMP280;62699;50.534;12.784;2023-03-14T21:52:23;95406.78;;;1.95
73894;BMP280;62699;50.534;12.784;2023-03-14T21:57:23;95422.94;;;2.06
73894;BMP280;62699;50.534;12.784;2023-03-14T22:02:28;95417.34;;;2.04
73894;BMP280;62699;50.534;12.784;2023-03-14T22:07:30;95425.31;;;2.04
73894;BMP280;62699;50.534;12.784;2023-03-14T22:12:32;95434.66;;;1.99
73894;BMP280;62699;50.534;12.784;2023-03-14T22:17:32;95440.97;;;2.02
73894;BMP280;62699;50.534;12.784;2023-03-14T22:22:33;95464.13;;;2.01
73894;BMP280;62699;50.534;12.784;2023-03-14T22:27:33;95458.88;;;1.92
73894;BMP280;62699;50.534;12.784;2023-03-14T22:32:33;95467.22;;;2.00
73894;BMP280;62699;50.534;12.784;2023-03-14T22:37:34;95479.19;;;1.95
73894;BMP280;62699;50.534;12.784;2023-03-14T22:42:35;95482.25;;;1.79
73894;BMP280;62699;50.534;12.784;2023-03-14T22:47:35;95486.72;;;1.64
73894;BMP280;62699;50.534;12.784;2023-03-14T22:52:35;95490.63;;;1.44
73894;BMP280;62699;50.534;12.784;2023-03-14T22:57:35;95497.59;;;1.33
73894;BMP280;62699;50.534;12.784;2023-03-14T23:02:38;95499.53;;;1.23
73894;BMP280;62699;50.534;12.784;2023-03-14T23:07:39;95496.88;;;1.23
73894;BMP280;62699;50.534;12.784;2023-03-14T23:12:39;95496.13;;;1.23
73894;BMP280;62699;50.534;12.784;2023-03-14T23:17:42;95505.28;;;1.22
73894;BMP280;62699;50.534;12.784;2023-03-14T23:22:46;95529.41;;;1.24
73894;BMP280;62699;50.534;12.784;2023-03-14T23:27:46;95529.59;;;1.20
73894;BMP280;62699;50.534;12.784;2023-03-14T23:32:47;95543.41;;;1.33
73894;BMP280;62699;50.534;12.784;2023-03-14T23:37:47;95543.88;;;1.32
73894;BMP280;62699;50.534;12.784;2023-03-14T23:42:47;95558.56;;;1.33
73894;BMP280;62699;50.534;12.784;2023-03-14T23:47:50;95558.56;;;1.33
73894;BMP280;62699;50.534;12.784;2023-03-14T23:52:50;95567.72;;;1.32
73894;BMP280;62699;50.534;12.784;2023-03-14T23:57:51;95561.81;;;1.28
